Pagrindinis puslapis
METAR-TAF:

METAR-TAF

Oro uostai :

Cachimbo, Para, Brazilija

platuma: 09-20S, ilguma: 054-57W, Aukštis: 536 m

Dabartinis oras

Ataskaita buvo paskelbta 2 valandos ir 34 minutes, ne 20:00 UTC
Vėjas 12 kt iš Rytų/Šiaurės Rytų
Temperatūra 33°C
Drėgmė 30%
Slėgis 1010 hPa
Matomumas 10 km arba daugiau
Mažai debesys ne aukštis 3200 ft

METAR: SBCC 162000Z 07012KT 9999 FEW032 33/13 Q1010

Laikas: 19:34 (22:34 UTC)


TAF: trūkstamas

Orai ataskaitas ir orų prognozės (METAR, TAF).

turimą stotys yra geltonos ir raudonos taškus žemėlapyje.

Perkelti pele per norėdami pamatyti stoties vardą.

Tada spustelėkite, norėdami matyti oro stebėjimo ir prognozės.

Norėdami pakeisti žemėlapį: spustelėkite ant žalios mygtukų su juodo kryžiaus žemyn,; žalią mygtuką su brūkšneliu, jei norite nutolinti; arba žalių rodyklių gretimoms žemėlapius.


METAR-TAF: